Time;durP1;ratioP1;P1;durP2;ratioP2;P2;SDS_P1;SDS_P2;PMS_P1;PMS_P2;Temp;Humidity;BMP_temperature;BMP_pressure;BME280_temperature;BME280_humidity;BME280_pressure;Samples;Min_cycle;Max_cycle;Signal;HPM_P1;HPM_P2
2022/01/24 00:01:27;;;;;;;6.67;3.77;;;2.70;99.90;;;;;;8471943;27;20187;-65
2022/01/24 00:05:28;;;;;;;5.47;4.23;;;2.70;99.90;;;;;;8488034;27;20183;-65
2022/01/24 00:09:29;;;;;;;8.30;5.30;;;2.70;99.90;;;;;;8485857;27;20245;-65
2022/01/24 00:17:37;;;;;;;7.70;4.53;;;2.80;99.90;;;;;;8481268;27;20261;-65
2022/01/24 00:30:17;;;;;;;6.37;3.93;;;2.70;99.90;;;;;;8480555;27;20301;-65
2022/01/24 00:34:18;;;;;;;5.33;3.43;;;2.80;99.90;;;;;;8474069;27;20209;-65
2022/01/24 00:38:19;;;;;;;8.00;4.47;;;2.70;99.90;;;;;;8486414;27;20292;-65
2022/01/24 00:42:31;;;;;;;4.93;3.27;;;2.70;99.90;;;;;;8473355;27;20275;-65
2022/01/24 00:46:41;;;;;;;4.47;2.87;;;2.60;99.90;;;;;;8472218;27;20180;-65
2022/01/24 00:55:03;;;;;;;7.57;4.70;;;2.50;99.90;;;;;;8486892;27;20189;-66
2022/01/24 00:59:04;;;;;;;6.67;4.23;;;2.50;99.90;;;;;;8485338;27;20279;-66
2022/01/24 01:03:05;;;;;;;5.40;4.37;;;2.50;99.90;;;;;;8476659;27;20179;-65
2022/01/24 01:07:07;;;;;;;7.80;4.77;;;2.50;99.90;;;;;;8478713;27;20183;-65
2022/01/24 01:19:47;;;;;;;5.90;3.93;;;2.50;99.90;;;;;;8478791;28;20262;-66
2022/01/24 01:23:53;;;;;;;4.70;2.83;;;2.50;99.90;;;;;;8476449;27;20183;-65
2022/01/24 01:27:56;;;;;;;6.20;3.73;;;2.50;99.90;;;;;;8463751;28;20208;-65
2022/01/24 01:57:15;;;;;;;6.03;3.53;;;2.40;99.90;;;;;;8473465;27;20191;-65
2022/01/24 02:01:15;;;;;;;4.90;3.30;;;2.40;99.90;;;;;;8476201;27;20583;-65
2022/01/24 02:05:16;;;;;;;5.53;3.67;;;2.40;99.90;;;;;;8486639;27;20618;-65
2022/01/24 02:09:17;;;;;;;5.07;3.20;;;2.50;99.90;;;;;;8485370;27;20199;-65
2022/01/24 02:13:18;;;;;;;4.77;3.17;;;2.40;99.90;;;;;;8483639;27;20215;-68
2022/01/24 02:17:29;;;;;;;4.57;3.03;;;2.50;99.90;;;;;;8482626;27;20251;-65
2022/01/24 02:21:58;;;;;;;6.17;3.53;;;2.40;99.90;;;;;;8488500;27;20203;-65
2022/01/24 02:26:01;;;;;;;4.03;3.03;;;2.40;99.90;;;;;;8488563;27;20248;-65
2022/01/24 02:34:40;;;;;;;4.93;3.27;;;2.40;99.90;;;;;;8460107;27;20298;-65
2022/01/24 02:38:59;;;;;;;6.13;3.93;;;2.40;99.90;;;;;;8478905;27;20216;-66
2022/01/24 02:55:41;;;;;;;6.60;3.73;;;2.40;99.90;;;;;;8467186;27;20176;-65
2022/01/24 02:59:42;;;;;;;4.53;3.50;;;2.40;99.90;;;;;;8484165;27;20243;-65
2022/01/24 03:03:43;;;;;;;4.57;2.70;;;2.40;99.90;;;;;;8470196;27;20205;-65
2022/01/24 03:07:44;;;;;;;4.13;2.90;;;2.40;99.90;;;;;;8488451;27;20179;-69
2022/01/24 03:12:40;;;;;;;5.10;3.00;;;2.40;99.90;;;;;;8490921;27;20206;-65
2022/01/24 03:16:09;;;;;;;5.37;3.33;;;2.40;99.90;;;;;;8479500;27;20281;-65
2022/01/24 03:20:10;;;;;;;5.50;3.60;;;2.30;99.90;;;;;;8488745;27;20190;-65
2022/01/24 03:24:12;;;;;;;4.57;2.90;;;2.30;99.90;;;;;;8491000;27;20179;-65
2022/01/24 03:28:14;;;;;;;3.60;2.73;;;2.30;99.90;;;;;;8492130;27;20195;-65
2022/01/24 03:32:15;;;;;;;5.53;3.03;;;2.30;99.90;;;;;;8477100;27;20211;-66
2022/01/24 03:36:19;;;;;;;5.30;3.57;;;2.30;99.90;;;;;;8474760;27;20182;-71
2022/01/24 03:40:20;;;;;;;5.47;4.00;;;2.30;99.90;;;;;;8483716;27;20176;-65
2022/01/24 03:44:23;;;;;;;7.20;4.90;;;2.40;99.90;;;;;;8475043;27;20190;-65
2022/01/24 03:48:38;;;;;;;7.07;4.77;;;2.40;99.90;;;;;;8489014;27;20179;-65
2022/01/24 03:52:41;;;;;;;7.27;4.63;;;2.30;99.90;;;;;;8489376;27;20179;-65
2022/01/24 03:56:42;;;;;;;6.27;3.60;;;2.30;99.90;;;;;;8482074;27;20175;-65
2022/01/24 04:00:43;;;;;;;4.83;3.73;;;2.20;99.90;;;;;;8477084;27;20191;-65
2022/01/24 04:04:45;;;;;;;6.30;3.70;;;2.20;99.90;;;;;;8486674;27;20225;-68
2022/01/24 04:08:45;;;;;;;6.00;3.83;;;2.20;99.90;;;;;;8466770;27;20225;-65
2022/01/24 04:12:49;;;;;;;4.80;2.97;;;2.20;99.90;;;;;;8473818;27;20247;-65
2022/01/24 04:25:23;;;;;;;7.27;4.03;;;2.30;99.90;;;;;;8487135;27;20183;-64
2022/01/24 04:29:23;;;;;;;5.83;3.60;;;2.30;99.90;;;;;;8478497;27;20595;-65
2022/01/24 04:33:24;;;;;;;4.73;3.27;;;2.30;99.90;;;;;;8481990;27;20181;-65
2022/01/24 04:37:25;;;;;;;8.03;4.37;;;2.30;99.90;;;;;;8462514;27;20190;-65
2022/01/24 04:41:33;;;;;;;9.57;5.10;;;2.30;99.90;;;;;;8475262;27;20183;-64
2022/01/24 04:46:00;;;;;;;6.03;3.53;;;2.30;99.90;;;;;;8473208;27;20183;-65
2022/01/24 04:54:44;;;;;;;4.97;2.80;;;2.30;99.90;;;;;;8415482;28;20180;-66
2022/01/24 04:58:45;;;;;;;4.83;3.17;;;2.30;99.90;;;;;;8422674;27;20199;-66
2022/01/24 05:02:45;;;;;;;5.37;3.23;;;2.30;99.90;;;;;;8454852;27;20186;-65
2022/01/24 05:06:46;;;;;;;4.77;3.37;;;2.30;99.90;;;;;;8476057;27;20180;-66
2022/01/24 05:11:04;;;;;;;5.23;3.90;;;2.30;99.90;;;;;;8482244;27;20538;-65
2022/01/24 05:23:44;;;;;;;3.63;2.77;;;2.30;99.90;;;;;;8453198;28;20241;-66
2022/01/24 05:27:45;;;;;;;6.70;4.03;;;2.40;99.90;;;;;;8466340;28;20186;-66
2022/01/24 05:31:46;;;;;;;7.87;4.00;;;2.40;99.90;;;;;;8480177;27;20211;-65
2022/01/24 05:35:48;;;;;;;9.07;4.90;;;2.40;99.90;;;;;;8489987;27;20184;-65
2022/01/24 05:39:48;;;;;;;4.37;3.17;;;2.40;99.90;;;;;;8478883;27;20191;-66
2022/01/24 05:43:49;;;;;;;5.77;3.43;;;2.40;99.90;;;;;;8470898;27;20183;-65
2022/01/24 05:47:50;;;;;;;5.10;3.37;;;2.40;99.90;;;;;;8479557;27;20186;-65
2022/01/24 05:51:51;;;;;;;5.93;3.87;;;2.40;99.90;;;;;;8457970;28;20207;-65
2022/01/24 05:55:53;;;;;;;4.20;2.80;;;2.40;99.90;;;;;;8461106;27;20175;-65
2022/01/24 05:59:54;;;;;;;5.03;3.20;;;2.30;99.90;;;;;;8477537;27;20199;-66
2022/01/24 06:03:55;;;;;;;6.00;3.30;;;2.40;99.90;;;;;;8484332;27;20198;-70
2022/01/24 06:07:56;;;;;;;3.87;2.80;;;2.40;99.90;;;;;;8480810;27;20197;-65
2022/01/24 06:11:57;;;;;;;3.87;2.80;;;2.30;99.90;;;;;;8489528;27;20199;-65
2022/01/24 06:15:57;;;;;;;4.20;3.07;;;2.30;99.90;;;;;;8477463;27;20199;-65
2022/01/24 06:19:58;;;;;;;6.63;4.47;;;2.30;99.90;;;;;;8491048;27;20386;-65
2022/01/24 06:23:59;;;;;;;8.87;5.33;;;2.30;99.90;;;;;;8490419;27;20321;-65
2022/01/24 06:28:03;;;;;;;7.90;5.13;;;2.30;99.90;;;;;;8491310;27;20191;-65
2022/01/24 06:32:04;;;;;;;7.37;5.10;;;2.30;99.90;;;;;;8495752;27;20306;-65
2022/01/24 06:36:05;;;;;;;10.50;6.63;;;2.30;99.90;;;;;;8488235;27;20175;-65
2022/01/24 06:40:08;;;;;;;13.73;7.03;;;2.30;99.90;;;;;;8474201;27;20184;-65
2022/01/24 06:44:09;;;;;;;25.57;12.23;;;2.30;99.90;;;;;;8487578;27;20190;-64
2022/01/24 06:48:10;;;;;;;24.83;12.73;;;2.40;99.90;;;;;;8481013;27;20538;-64
2022/01/24 06:52:13;;;;;;;37.43;15.93;;;2.40;99.90;;;;;;8490213;27;20197;-65
2022/01/24 06:56:15;;;;;;;45.40;18.27;;;2.50;99.90;;;;;;8486458;27;20175;-65
2022/01/24 07:00:15;;;;;;;23.60;11.17;;;2.50;99.90;;;;;;8479551;27;20196;-66
2022/01/24 07:04:16;;;;;;;19.87;9.53;;;2.50;99.90;;;;;;8463056;27;20654;-66
2022/01/24 07:08:17;;;;;;;17.03;11.80;;;2.60;99.90;;;;;;8472491;27;20187;-66
2022/01/24 07:12:18;;;;;;;10.40;7.43;;;2.70;99.90;;;;;;8475271;27;20301;-66
2022/01/24 07:16:18;;;;;;;8.80;5.83;;;2.70;99.90;;;;;;8458226;27;20248;-66
2022/01/24 07:20:20;;;;;;;10.33;5.73;;;2.80;99.90;;;;;;8488606;27;20186;-66
2022/01/24 07:24:21;;;;;;;25.97;22.20;;;2.80;99.90;;;;;;8490622;27;20175;-66
2022/01/24 07:28:22;;;;;;;22.10;19.63;;;2.90;99.90;;;;;;8487613;27;20211;-66
2022/01/24 07:32:23;;;;;;;20.47;16.50;;;2.90;99.90;;;;;;8478239;27;20252;-71
2022/01/24 07:36:25;;;;;;;18.90;13.77;;;2.90;99.90;;;;;;8481042;27;20207;-66
2022/01/24 07:40:26;;;;;;;22.60;13.13;;;3.00;99.90;;;;;;8484780;27;20192;-66
2022/01/24 07:44:27;;;;;;;22.83;13.93;;;3.00;99.90;;;;;;8481737;27;20186;-66
2022/01/24 07:48:28;;;;;;;21.27;13.20;;;3.10;99.90;;;;;;8480201;27;20183;-66
2022/01/24 07:52:28;;;;;;;19.40;11.47;;;3.30;99.90;;;;;;8488077;27;20207;-66
2022/01/24 07:56:32;;;;;;;22.40;11.47;;;3.30;99.90;;;;;;8486718;27;20459;-66
2022/01/24 08:00:34;;;;;;;26.30;13.60;;;3.50;99.90;;;;;;8473984;27;20195;-71
2022/01/24 08:04:35;;;;;;;26.90;14.60;;;3.60;99.90;;;;;;8470010;27;20187;-66
2022/01/24 08:08:36;;;;;;;24.87;14.33;;;3.70;99.90;;;;;;8488806;27;20578;-66
2022/01/24 08:12:39;;;;;;;35.47;17.90;;;3.80;99.90;;;;;;8482258;27;20204;-66
2022/01/24 08:16:40;;;;;;;30.23;15.23;;;3.90;99.90;;;;;;8470836;27;20196;-66
2022/01/24 08:20:41;;;;;;;21.53;11.83;;;4.00;99.90;;;;;;8454193;28;20183;-66
2022/01/24 08:24:42;;;;;;;17.43;10.47;;;4.10;99.90;;;;;;8452635;28;20267;-66
2022/01/24 08:28:43;;;;;;;16.43;9.30;;;4.10;99.90;;;;;;8470959;27;20175;-66
2022/01/24 08:32:46;;;;;;;13.83;8.80;;;4.20;99.90;;;;;;8473238;27;20236;-66
2022/01/24 08:36:47;;;;;;;13.57;8.63;;;4.10;99.90;;;;;;8461926;27;20496;-66
2022/01/24 08:40:51;;;;;;;15.57;8.73;;;4.00;99.90;;;;;;8473878;27;20214;-66
2022/01/24 08:48:56;;;;;;;17.77;9.47;;;4.00;99.90;;;;;;8479509;27;20195;-66
2022/01/24 08:52:59;;;;;;;15.97;9.33;;;4.00;99.90;;;;;;8474156;27;20183;-66
2022/01/24 08:57:00;;;;;;;17.67;9.73;;;4.10;99.90;;;;;;8470921;27;20199;-66
2022/01/24 09:01:01;;;;;;;16.70;10.70;;;4.10;99.90;;;;;;8469580;27;20203;-66
2022/01/24 09:05:03;;;;;;;18.17;10.23;;;4.10;99.90;;;;;;8462551;27;20278;-66
2022/01/24 09:09:05;;;;;;;14.53;9.57;;;4.20;99.90;;;;;;8483284;27;20575;-66
2022/01/24 09:13:07;;;;;;;19.37;9.80;;;4.30;99.90;;;;;;8481177;27;20179;-66
2022/01/24 09:17:08;;;;;;;19.37;10.83;;;4.30;99.90;;;;;;8482012;27;20203;-66
2022/01/24 09:21:09;;;;;;;21.83;11.60;;;4.30;99.90;;;;;;8451876;28;20211;-67
2022/01/24 09:25:10;;;;;;;19.20;10.13;;;4.40;99.90;;;;;;8472427;28;20241;-66
2022/01/24 09:29:12;;;;;;;16.27;10.37;;;4.30;99.90;;;;;;8472014;28;20219;-66
2022/01/24 09:33:13;;;;;;;18.03;9.40;;;4.30;99.90;;;;;;8483075;27;20190;-66
2022/01/24 09:37:13;;;;;;;15.07;8.90;;;4.40;99.90;;;;;;8472458;27;20171;-66
2022/01/24 09:41:15;;;;;;;13.43;7.87;;;4.30;99.90;;;;;;8479006;27;20183;-67
2022/01/24 09:45:17;;;;;;;10.40;5.87;;;4.40;99.90;;;;;;8467541;27;20207;-67
2022/01/24 09:49:18;;;;;;;9.67;6.07;;;4.40;99.90;;;;;;8483288;27;20203;-66
2022/01/24 09:53:20;;;;;;;9.17;6.07;;;4.40;99.90;;;;;;8473819;27;20182;-66
2022/01/24 09:57:21;;;;;;;9.80;5.23;;;4.30;99.90;;;;;;8469178;27;20188;-66
2022/01/24 10:01:23;;;;;;;8.50;5.70;;;4.40;99.90;;;;;;8480337;27;20216;-66
2022/01/24 10:05:27;;;;;;;7.17;4.87;;;4.50;99.90;;;;;;8480803;27;20176;-66
2022/01/24 10:09:39;;;;;;;8.90;5.20;;;4.50;99.90;;;;;;8472572;27;20252;-67
2022/01/24 10:18:09;;;;;;;4.90;3.30;;;4.60;99.90;;;;;;8484906;27;20308;-72
2022/01/24 10:22:10;;;;;;;5.50;3.57;;;4.70;99.90;;;;;;8482501;27;20187;-66
2022/01/24 10:26:12;;;;;;;5.40;3.67;;;4.60;99.90;;;;;;8469510;27;20290;-66
2022/01/24 10:30:13;;;;;;;7.97;5.17;;;4.60;99.90;;;;;;8472609;27;20207;-66
2022/01/24 10:34:23;;;;;;;6.90;4.93;;;4.50;99.90;;;;;;8471242;27;20180;-66
2022/01/24 10:46:30;;;;;;;10.23;5.97;;;4.50;99.90;;;;;;8483532;27;20271;-70
2022/01/24 10:50:31;;;;;;;3.03;2.17;;;4.50;99.90;;;;;;8490628;27;20203;-66
2022/01/24 10:54:32;;;;;;;4.77;3.37;;;4.30;99.90;;;;;;8485263;27;20171;-66
2022/01/24 10:58:36;;;;;;;5.63;3.87;;;4.30;99.90;;;;;;8486297;27;20201;-66
2022/01/24 11:02:42;;;;;;;6.63;3.67;;;4.40;99.90;;;;;;8475231;27;20195;-66
2022/01/24 11:06:46;;;;;;;2.93;2.43;;;4.50;99.90;;;;;;8476624;27;20187;-66
2022/01/24 11:10:49;;;;;;;2.17;1.67;;;4.90;99.90;;;;;;8488660;27;20207;-66
2022/01/24 11:14:52;;;;;;;2.63;1.63;;;5.30;99.90;;;;;;8479908;27;20263;-66
2022/01/24 11:18:54;;;;;;;5.43;2.10;;;5.40;99.90;;;;;;8488417;27;20210;-66
2022/01/24 11:22:59;;;;;;;3.33;2.00;;;5.30;99.90;;;;;;8488268;27;20563;-66
2022/01/24 11:27:00;;;;;;;1.23;1.13;;;5.00;99.90;;;;;;8472959;27;20179;-65
2022/01/24 11:31:11;;;;;;;1.77;1.40;;;4.80;99.90;;;;;;8493942;27;20214;-67
2022/01/24 11:35:12;;;;;;;3.10;2.30;;;4.70;99.90;;;;;;8481376;27;20183;-66
2022/01/24 11:39:21;;;;;;;2.30;1.37;;;4.50;99.90;;;;;;8479812;27;20183;-66
2022/01/24 11:43:41;;;;;;;2.10;1.10;;;4.50;99.90;;;;;;8466186;27;20195;-66
2022/01/24 11:47:44;;;;;;;1.53;1.20;;;4.50;99.90;;;;;;8462927;27;20191;-66
2022/01/24 11:51:49;;;;;;;1.50;1.00;;;4.50;99.90;;;;;;8454294;28;20214;-66
2022/01/24 11:55:54;;;;;;;4.73;3.27;;;4.60;99.90;;;;;;8456434;27;20180;-66
2022/01/24 12:00:05;;;;;;;2.10;1.57;;;4.50;99.90;;;;;;8472266;27;20233;-66
2022/01/24 12:04:05;;;;;;;8.07;4.50;;;4.60;99.90;;;;;;8480547;27;20587;-66
2022/01/24 12:08:10;;;;;;;3.80;2.07;;;4.50;99.90;;;;;;8466540;27;20180;-66
2022/01/24 12:12:42;;;;;;;4.10;2.40;;;4.50;99.90;;;;;;8471613;27;20267;-67
2022/01/24 12:16:45;;;;;;;2.50;2.00;;;4.50;99.90;;;;;;8473674;27;20194;-66
2022/01/24 12:20:47;;;;;;;3.37;2.10;;;4.50;99.90;;;;;;8486529;27;20271;-66
2022/01/24 12:24:48;;;;;;;4.07;1.80;;;4.70;99.90;;;;;;8488347;27;20199;-66
2022/01/24 12:28:53;;;;;;;3.47;2.10;;;5.00;99.90;;;;;;8481390;27;20187;-65
2022/01/24 12:32:54;;;;;;;2.17;1.40;;;4.90;99.90;;;;;;8474431;27;20188;-66
2022/01/24 12:37:04;;;;;;;3.10;1.83;;;4.80;99.90;;;;;;8462939;27;20229;-65
2022/01/24 12:41:25;;;;;;;2.10;1.30;;;4.90;99.90;;;;;;8476856;27;20186;-66
2022/01/24 12:49:50;;;;;;;3.00;1.87;;;4.90;99.90;;;;;;8471164;27;20302;-66
2022/01/24 12:53:52;;;;;;;1.60;1.50;;;4.60;99.90;;;;;;8466343;27;20183;-66
2022/01/24 12:57:53;;;;;;;2.00;1.40;;;4.60;99.90;;;;;;8468150;27;20199;-66
2022/01/24 13:01:57;;;;;;;2.10;1.27;;;4.70;99.90;;;;;;8468687;27;20191;-66
2022/01/24 13:05:57;;;;;;;1.70;1.20;;;4.80;99.90;;;;;;8468011;27;20184;-66
2022/01/24 13:10:08;;;;;;;1.50;1.17;;;4.90;99.90;;;;;;8482974;27;20611;-66
2022/01/24 13:14:17;;;;;;;1.67;1.20;;;5.10;99.90;;;;;;8484787;27;20176;-66
2022/01/24 13:22:52;;;;;;;2.43;1.10;;;5.20;99.90;;;;;;8447959;28;20216;-66
2022/01/24 13:27:04;;;;;;;2.17;1.20;;;5.30;99.90;;;;;;8485762;28;20510;-66
2022/01/24 13:31:07;;;;;;;2.33;1.33;;;5.50;99.90;;;;;;8475563;27;20429;-66
2022/01/24 13:35:17;;;;;;;2.03;1.73;;;5.90;99.90;;;;;;8468656;28;20190;-69
2022/01/24 13:39:18;;;;;;;2.13;1.17;;;6.20;99.90;;;;;;8482023;27;20247;-66
2022/01/24 13:43:35;;;;;;;1.27;0.90;;;6.50;99.90;;;;;;8477056;27;20186;-66
2022/01/24 13:47:36;;;;;;;1.73;1.00;;;6.70;99.90;;;;;;8459553;28;20187;-66
2022/01/24 13:51:43;;;;;;;1.97;1.60;;;6.80;99.90;;;;;;8454234;28;20211;-66
2022/01/24 13:55:44;;;;;;;0.83;0.70;;;6.90;99.90;;;;;;8461318;27;20176;-66
2022/01/24 13:59:45;;;;;;;12.20;5.47;;;6.80;99.90;;;;;;8477862;27;20206;-66
2022/01/24 14:03:58;;;;;;;8.07;3.70;;;6.80;99.90;;;;;;8478218;27;20186;-66
2022/01/24 14:08:13;;;;;;;3.20;2.47;;;6.60;99.90;;;;;;8475887;27;20184;-66
2022/01/24 14:12:35;;;;;;;1.87;1.63;;;6.40;99.90;;;;;;8469510;27;20298;-66
2022/01/24 14:16:44;;;;;;;1.37;1.20;;;6.30;99.90;;;;;;8482373;27;20191;-66
2022/01/24 14:20:51;;;;;;;1.37;0.97;;;6.20;99.90;;;;;;8482705;27;20176;-66
2022/01/24 14:24:57;;;;;;;2.07;1.17;;;6.10;99.90;;;;;;8480696;27;20177;-66
2022/01/24 14:29:13;;;;;;;4.40;3.10;;;5.90;99.90;;;;;;8470611;27;20282;-66
2022/01/24 14:33:22;;;;;;;3.30;2.60;;;5.80;99.90;;;;;;8491267;27;20186;-66
2022/01/24 14:37:43;;;;;;;4.20;3.20;;;5.60;99.90;;;;;;8485347;27;20304;-66
2022/01/24 14:41:46;;;;;;;3.63;3.20;;;5.40;99.90;;;;;;8475369;27;20253;-66
2022/01/24 14:45:47;;;;;;;3.10;2.50;;;5.40;99.90;;;;;;8476867;27;20176;-66
2022/01/24 14:49:48;;;;;;;4.43;2.60;;;5.30;99.90;;;;;;8479092;27;20333;-66
2022/01/24 14:53:51;;;;;;;3.30;2.40;;;5.30;99.90;;;;;;8472427;27;20271;-66
2022/01/24 14:57:51;;;;;;;2.67;2.40;;;5.30;99.90;;;;;;8471922;27;20248;-66
2022/01/24 15:01:53;;;;;;;6.83;3.73;;;5.20;99.90;;;;;;8484416;27;20266;-66
2022/01/24 15:05:56;;;;;;;5.23;4.03;;;5.20;99.90;;;;;;8471973;27;20216;-66
2022/01/24 15:09:57;;;;;;;4.97;4.33;;;5.10;99.90;;;;;;8487849;27;20267;-66
2022/01/24 15:14:14;;;;;;;12.57;7.70;;;5.10;99.90;;;;;;8477507;27;20237;-66
2022/01/24 15:26:54;;;;;;;15.23;8.87;;;4.90;99.90;;;;;;8490060;27;20320;-66
2022/01/24 15:30:55;;;;;;;12.40;8.43;;;4.80;99.90;;;;;;8484314;27;20214;-66
2022/01/24 15:34:56;;;;;;;13.67;8.73;;;4.80;99.90;;;;;;8472762;27;20193;-66
2022/01/24 15:39:00;;;;;;;12.67;8.27;;;4.70;99.90;;;;;;8485931;27;20212;-66
2022/01/24 15:43:11;;;;;;;13.70;8.20;;;4.60;99.90;;;;;;8476422;27;20192;-66
2022/01/24 15:51:14;;;;;;;14.67;9.77;;;4.60;99.90;;;;;;8463546;27;20277;-66
2022/01/24 15:55:17;;;;;;;16.57;10.50;;;4.60;99.90;;;;;;8484910;27;20175;-66
2022/01/24 15:59:18;;;;;;;30.10;14.70;;;4.60;99.90;;;;;;8480271;27;20252;-66
2022/01/24 16:03:19;;;;;;;23.87;13.10;;;4.60;99.90;;;;;;8487932;27;20179;-65
2022/01/24 16:07:20;;;;;;;20.97;12.70;;;4.50;99.90;;;;;;8488553;27;20188;-65
2022/01/24 16:11:24;;;;;;;18.60;12.20;;;4.50;99.90;;;;;;8485122;27;20214;-65
2022/01/24 16:15:27;;;;;;;21.03;12.40;;;4.50;99.90;;;;;;8475658;27;20209;-65
2022/01/24 16:19:29;;;;;;;16.47;10.20;;;4.40;99.90;;;;;;8460081;27;20607;-65
2022/01/24 16:23:46;;;;;;;17.53;11.87;;;4.40;99.90;;;;;;8470620;27;20186;-65
2022/01/24 16:27:47;;;;;;;22.50;13.67;;;4.40;99.90;;;;;;8468207;27;20179;-65
2022/01/24 16:31:48;;;;;;;19.83;10.83;;;4.30;99.90;;;;;;8476293;27;20218;-65
2022/01/24 16:35:52;;;;;;;15.97;9.97;;;4.30;99.90;;;;;;8462190;27;20186;-64
2022/01/24 16:39:53;;;;;;;17.60;10.97;;;4.20;99.90;;;;;;8456453;27;20211;-64
2022/01/24 16:44:03;;;;;;;22.53;11.00;;;4.20;99.90;;;;;;8468887;27;20247;-64
2022/01/24 16:48:04;;;;;;;18.00;11.57;;;4.20;99.90;;;;;;8486171;27;20183;-64
2022/01/24 16:52:07;;;;;;;19.87;11.30;;;4.10;99.90;;;;;;8478973;27;20253;-67
2022/01/24 16:56:08;;;;;;;16.70;11.00;;;4.10;99.90;;;;;;8462687;27;20176;-64
2022/01/24 17:00:09;;;;;;;17.43;10.40;;;4.10;99.90;;;;;;8481989;27;20199;-64
2022/01/24 17:04:10;;;;;;;21.27;15.80;;;4.10;99.90;;;;;;8480209;27;20187;-64
2022/01/24 17:08:13;;;;;;;28.83;20.47;;;4.00;99.90;;;;;;8469094;27;20184;-64
2022/01/24 17:12:13;;;;;;;26.33;15.57;;;3.90;99.90;;;;;;8460189;27;20211;-63
2022/01/24 17:16:14;;;;;;;22.07;12.63;;;3.90;99.90;;;;;;8485617;27;20285;-64
2022/01/24 17:20:15;;;;;;;19.07;10.83;;;3.80;99.90;;;;;;8469473;27;20381;-64
2022/01/24 17:24:17;;;;;;;19.73;11.67;;;3.80;99.90;;;;;;8484334;27;20257;-65
2022/01/24 17:28:18;;;;;;;21.43;12.27;;;3.70;99.90;;;;;;8481181;28;20175;-72
2022/01/24 17:32:19;;;;;;;21.57;13.50;;;3.70;99.90;;;;;;8473402;28;20203;-64
2022/01/24 17:36:20;;;;;;;22.53;15.17;;;3.70;99.90;;;;;;8460611;28;20178;-64
2022/01/24 17:40:22;;;;;;;20.73;13.33;;;3.60;99.90;;;;;;8471295;28;20187;-66
2022/01/24 17:44:23;;;;;;;22.17;13.53;;;3.60;99.90;;;;;;8466449;27;20184;-64
2022/01/24 17:48:27;;;;;;;19.60;12.17;;;3.60;99.90;;;;;;8470216;28;20179;-65
2022/01/24 17:52:28;;;;;;;28.47;17.60;;;3.70;99.90;;;;;;8477955;27;20225;-65
2022/01/24 17:56:29;;;;;;;22.33;16.27;;;3.60;99.90;;;;;;8483660;28;20178;-64
2022/01/24 18:00:30;;;;;;;29.00;16.27;;;3.60;99.90;;;;;;8472743;27;20275;-63
2022/01/24 18:04:31;;;;;;;22.43;13.47;;;3.50;99.90;;;;;;8483882;27;20195;-65
2022/01/24 18:08:38;;;;;;;19.10;12.43;;;3.50;99.90;;;;;;8474264;28;20641;-64
2022/01/24 18:12:40;;;;;;;20.87;11.90;;;3.40;99.90;;;;;;8473767;27;20203;-64
2022/01/24 18:16:40;;;;;;;20.67;11.43;;;3.40;99.90;;;;;;8480095;27;20242;-63
2022/01/24 18:20:42;;;;;;;18.27;11.07;;;3.30;99.90;;;;;;8477293;28;20191;-64
2022/01/24 18:24:43;;;;;;;20.87;11.73;;;3.30;99.90;;;;;;8481965;28;20194;-64
2022/01/24 18:28:44;;;;;;;20.83;11.03;;;3.30;99.90;;;;;;8480161;27;20176;-65
2022/01/24 18:32:45;;;;;;;19.50;11.37;;;3.40;99.90;;;;;;8466123;27;20207;-65
2022/01/24 18:36:46;;;;;;;19.37;11.63;;;3.40;99.90;;;;;;8475640;27;20192;-66
2022/01/24 18:40:47;;;;;;;23.27;10.70;;;3.40;99.90;;;;;;8481921;27;20249;-66
2022/01/24 18:44:50;;;;;;;22.73;12.50;;;3.40;99.90;;;;;;8479677;27;20178;-65
2022/01/24 18:48:51;;;;;;;18.77;10.47;;;3.40;99.90;;;;;;8491620;27;20206;-66
2022/01/24 18:52:55;;;;;;;16.90;11.20;;;3.40;99.90;;;;;;8489395;27;20241;-65
2022/01/24 18:56:59;;;;;;;21.90;10.40;;;3.40;99.90;;;;;;8483943;27;20251;-65
2022/01/24 19:01:00;;;;;;;19.67;11.20;;;3.40;99.90;;;;;;8482256;27;20183;-65
2022/01/24 19:05:01;;;;;;;16.73;9.63;;;3.40;99.90;;;;;;8490781;27;20198;-67
2022/01/24 19:09:02;;;;;;;19.73;10.67;;;3.40;99.90;;;;;;8483382;27;20186;-65
2022/01/24 19:13:06;;;;;;;17.37;10.40;;;3.50;99.90;;;;;;8478338;27;20705;-66
2022/01/24 19:17:10;;;;;;;16.83;11.60;;;3.50;99.90;;;;;;8483482;27;20207;-70
2022/01/24 19:25:31;;;;;;;17.93;10.07;;;3.40;99.90;;;;;;8483685;27;20190;-65
2022/01/24 19:29:32;;;;;;;17.90;10.03;;;3.40;99.90;;;;;;8487368;27;20207;-64
2022/01/24 19:33:33;;;;;;;16.07;9.63;;;3.40;99.90;;;;;;8479014;27;20185;-65
2022/01/24 19:37:34;;;;;;;15.77;9.53;;;3.50;99.90;;;;;;8481645;27;20171;-64
2022/01/24 19:41:37;;;;;;;15.70;9.63;;;3.50;99.90;;;;;;8486920;27;20194;-65
2022/01/24 19:45:39;;;;;;;18.67;9.47;;;3.50;99.90;;;;;;8482767;27;20255;-65
2022/01/24 19:49:41;;;;;;;13.80;9.57;;;3.50;99.90;;;;;;8460409;27;20204;-65
2022/01/24 19:53:44;;;;;;;16.17;9.80;;;3.50;99.90;;;;;;8474004;27;20182;-65
2022/01/24 19:57:53;;;;;;;17.10;11.03;;;3.50;99.90;;;;;;8481077;27;20622;-65
2022/01/24 20:01:54;;;;;;;22.47;14.70;;;3.50;99.90;;;;;;8469425;27;20188;-65
2022/01/24 20:05:55;;;;;;;21.37;14.80;;;3.50;99.90;;;;;;8468018;27;20194;-64
2022/01/24 20:09:56;;;;;;;22.60;13.90;;;3.60;99.90;;;;;;8487875;27;20522;-64
2022/01/24 20:13:58;;;;;;;18.80;12.40;;;3.50;99.90;;;;;;8478057;27;20175;-65
2022/01/24 20:17:59;;;;;;;25.27;12.90;;;3.50;99.90;;;;;;8488476;27;20202;-66
2022/01/24 20:22:00;;;;;;;24.60;14.37;;;3.50;99.90;;;;;;8487354;27;20194;-64
2022/01/24 20:26:01;;;;;;;23.60;12.80;;;3.50;99.90;;;;;;8454265;27;20180;-64
2022/01/24 20:30:03;;;;;;;24.80;14.97;;;3.50;99.90;;;;;;8490995;27;20214;-64
2022/01/24 20:34:05;;;;;;;24.37;14.73;;;3.50;99.90;;;;;;8478090;27;20251;-64
2022/01/24 20:38:06;;;;;;;23.47;14.57;;;3.50;99.90;;;;;;8485183;27;20194;-65
2022/01/24 20:42:07;;;;;;;25.00;14.27;;;3.40;99.90;;;;;;8469855;27;20186;-65
2022/01/24 20:46:09;;;;;;;20.40;13.27;;;3.50;99.90;;;;;;8460674;27;20175;-64
2022/01/24 20:50:14;;;;;;;22.87;14.73;;;3.50;99.90;;;;;;8483662;27;20290;-64
2022/01/24 20:54:16;;;;;;;23.73;14.33;;;3.50;99.90;;;;;;8476791;27;20183;-65
2022/01/24 20:58:17;;;;;;;25.93;15.23;;;3.50;99.90;;;;;;8474292;27;20286;-71
2022/01/24 21:02:18;;;;;;;33.47;17.57;;;3.50;99.90;;;;;;8470088;27;20170;-64
2022/01/24 21:06:20;;;;;;;31.47;17.73;;;3.40;99.90;;;;;;8475561;27;20206;-64
2022/01/24 21:10:23;;;;;;;34.97;17.40;;;3.40;99.90;;;;;;8453581;28;20207;-65
2022/01/24 21:14:24;;;;;;;26.50;15.03;;;3.40;99.90;;;;;;8480144;27;20251;-65
2022/01/24 21:18:25;;;;;;;26.03;15.37;;;3.40;99.90;;;;;;8467588;27;20187;-65
2022/01/24 21:22:26;;;;;;;26.53;17.20;;;3.50;99.90;;;;;;8465409;27;20195;-64
2022/01/24 21:26:28;;;;;;;24.63;14.87;;;3.50;99.90;;;;;;8482074;27;20254;-64
2022/01/24 21:30:29;;;;;;;26.80;15.33;;;3.50;99.90;;;;;;8480863;28;20206;-64
2022/01/24 21:38:59;;;;;;;29.17;16.80;;;3.50;99.90;;;;;;8457737;27;20190;-65
2022/01/24 21:43:01;;;;;;;29.67;18.07;;;3.50;99.90;;;;;;8471286;28;20187;-65
2022/01/24 21:47:04;;;;;;;23.63;15.07;;;3.50;99.90;;;;;;8468884;28;20194;-64
2022/01/24 21:51:04;;;;;;;27.47;16.77;;;3.50;99.90;;;;;;8459569;28;20234;-65
2022/01/24 21:55:11;;;;;;;26.53;17.27;;;3.60;99.90;;;;;;8482943;28;20174;-68
2022/01/24 21:59:12;;;;;;;30.90;17.33;;;3.60;99.90;;;;;;8476374;28;20202;-64
2022/01/24 22:03:13;;;;;;;27.30;15.40;;;3.60;99.90;;;;;;8486774;28;20175;-64
2022/01/24 22:07:34;;;;;;;25.80;15.73;;;3.60;99.90;;;;;;8485805;27;20316;-64
2022/01/24 22:11:37;;;;;;;23.60;14.27;;;3.60;99.90;;;;;;8482659;27;20200;-65
2022/01/24 22:15:39;;;;;;;23.83;14.03;;;3.60;99.90;;;;;;8485996;27;20207;-64
2022/01/24 22:19:40;;;;;;;21.70;14.33;;;3.60;99.90;;;;;;8460541;27;20179;-64
2022/01/24 22:23:44;;;;;;;21.80;13.90;;;3.60;99.90;;;;;;8482361;27;20209;-65
2022/01/24 22:27:46;;;;;;;27.73;14.73;;;3.60;99.90;;;;;;8485156;27;20179;-65
2022/01/24 22:31:46;;;;;;;27.43;14.80;;;3.50;99.90;;;;;;8471953;27;20206;-65
2022/01/24 22:35:47;;;;;;;22.07;13.33;;;3.50;99.90;;;;;;8464449;27;20179;-66
2022/01/24 22:39:48;;;;;;;23.83;13.00;;;3.40;99.90;;;;;;8487324;27;20182;-64
2022/01/24 22:43:52;;;;;;;17.80;10.97;;;3.40;99.90;;;;;;8472957;27;20189;-64
2022/01/24 22:47:53;;;;;;;19.53;11.73;;;3.40;99.90;;;;;;8477987;27;20188;-65
2022/01/24 22:51:58;;;;;;;23.23;14.57;;;3.40;99.90;;;;;;8470173;27;20208;-65
2022/01/24 22:55:59;;;;;;;24.40;12.70;;;3.50;99.90;;;;;;8486566;27;20246;-64
2022/01/24 23:00:02;;;;;;;21.40;12.13;;;3.50;99.90;;;;;;8483567;27;20194;-64
2022/01/24 23:04:03;;;;;;;23.13;11.87;;;3.50;99.90;;;;;;8489923;27;20184;-64
2022/01/24 23:08:06;;;;;;;24.33;12.70;;;3.50;99.90;;;;;;8475273;27;20180;-64
2022/01/24 23:12:10;;;;;;;23.07;13.07;;;3.50;99.90;;;;;;8467904;27;20269;-64
2022/01/24 23:20:34;;;;;;;19.93;12.43;;;3.50;99.90;;;;;;8463203;27;20195;-68
2022/01/24 23:24:41;;;;;;;21.00;11.70;;;3.50;99.90;;;;;;8465768;27;20263;-64
2022/01/24 23:28:48;;;;;;;17.90;10.77;;;3.50;99.90;;;;;;8476701;27;20262;-65